sensor_id;sensor_type;location;lat;lon;timestamp;P1;durP1;ratioP1;P2;durP2;ratioP2
84864;SDS011;75122;41.650;25.368;2024-01-06T00:01:25;10.85;;;5.40;;
84864;SDS011;75122;41.650;25.368;2024-01-06T00:03:50;9.13;;;4.63;;
84864;SDS011;75122;41.650;25.368;2024-01-06T00:06:15;10.48;;;5.45;;
84864;SDS011;75122;41.650;25.368;2024-01-06T00:08:41;10.05;;;5.50;;
84864;SDS011;75122;41.650;25.368;2024-01-06T00:11:06;8.85;;;4.57;;
84864;SDS011;75122;41.650;25.368;2024-01-06T00:13:32;9.25;;;4.60;;
84864;SDS011;75122;41.650;25.368;2024-01-06T00:15:57;12.68;;;5.78;;
84864;SDS011;75122;41.650;25.368;2024-01-06T00:18:23;8.85;;;4.75;;
84864;SDS011;75122;41.650;25.368;2024-01-06T00:20:49;12.68;;;6.90;;
84864;SDS011;75122;41.650;25.368;2024-01-06T00:23:14;8.82;;;5.90;;
84864;SDS011;75122;41.650;25.368;2024-01-06T00:25:40;15.40;;;6.68;;
84864;SDS011;75122;41.650;25.368;2024-01-06T00:28:05;14.45;;;5.47;;
84864;SDS011;75122;41.650;25.368;2024-01-06T00:30:30;11.27;;;5.25;;
84864;SDS011;75122;41.650;25.368;2024-01-06T00:32:56;9.65;;;5.05;;
84864;SDS011;75122;41.650;25.368;2024-01-06T00:35:21;11.60;;;5.13;;
84864;SDS011;75122;41.650;25.368;2024-01-06T00:37:47;9.93;;;5.25;;
84864;SDS011;75122;41.650;25.368;2024-01-06T00:40:12;11.30;;;5.45;;
84864;SDS011;75122;41.650;25.368;2024-01-06T00:42:38;11.60;;;5.65;;
84864;SDS011;75122;41.650;25.368;2024-01-06T00:45:03;11.57;;;5.35;;
84864;SDS011;75122;41.650;25.368;2024-01-06T00:47:30;9.55;;;5.13;;
84864;SDS011;75122;41.650;25.368;2024-01-06T00:49:56;5.05;;;3.58;;
84864;SDS011;75122;41.650;25.368;2024-01-06T00:52:21;8.95;;;4.97;;
84864;SDS011;75122;41.650;25.368;2024-01-06T00:54:47;6.55;;;3.95;;
84864;SDS011;75122;41.650;25.368;2024-01-06T00:57:12;12.20;;;4.95;;
84864;SDS011;75122;41.650;25.368;2024-01-06T00:59:37;9.85;;;4.03;;
84864;SDS011;75122;41.650;25.368;2024-01-06T01:02:03;12.38;;;5.13;;
84864;SDS011;75122;41.650;25.368;2024-01-06T01:04:28;9.35;;;3.80;;
84864;SDS011;75122;41.650;25.368;2024-01-06T01:06:54;6.15;;;3.47;;
84864;SDS011;75122;41.650;25.368;2024-01-06T01:09:19;3.42;;;2.03;;
84864;SDS011;75122;41.650;25.368;2024-01-06T01:11:45;9.20;;;3.28;;
84864;SDS011;75122;41.650;25.368;2024-01-06T01:14:10;5.05;;;2.03;;
84864;SDS011;75122;41.650;25.368;2024-01-06T01:16:35;5.63;;;2.80;;
84864;SDS011;75122;41.650;25.368;2024-01-06T01:19:01;3.88;;;2.30;;
84864;SDS011;75122;41.650;25.368;2024-01-06T01:21:27;4.22;;;2.35;;
84864;SDS011;75122;41.650;25.368;2024-01-06T01:23:53;4.40;;;1.65;;
84864;SDS011;75122;41.650;25.368;2024-01-06T01:26:18;3.60;;;1.83;;
84864;SDS011;75122;41.650;25.368;2024-01-06T01:28:44;4.60;;;1.92;;
84864;SDS011;75122;41.650;25.368;2024-01-06T01:31:09;4.00;;;1.85;;
84864;SDS011;75122;41.650;25.368;2024-01-06T01:33:35;3.05;;;1.95;;
84864;SDS011;75122;41.650;25.368;2024-01-06T01:36:00;7.57;;;1.85;;
84864;SDS011;75122;41.650;25.368;2024-01-06T01:38:25;4.95;;;1.45;;
84864;SDS011;75122;41.650;25.368;2024-01-06T01:40:51;7.43;;;2.05;;
84864;SDS011;75122;41.650;25.368;2024-01-06T01:43:20;3.28;;;2.03;;
84864;SDS011;75122;41.650;25.368;2024-01-06T01:45:53;4.13;;;1.40;;
84864;SDS011;75122;41.650;25.368;2024-01-06T01:48:19;5.15;;;2.17;;
84864;SDS011;75122;41.650;25.368;2024-01-06T01:50:46;2.42;;;1.55;;
84864;SDS011;75122;41.650;25.368;2024-01-06T01:53:12;3.05;;;1.25;;
84864;SDS011;75122;41.650;25.368;2024-01-06T01:55:37;2.35;;;1.15;;
84864;SDS011;75122;41.650;25.368;2024-01-06T01:58:04;7.10;;;1.58;;
84864;SDS011;75122;41.650;25.368;2024-01-06T02:00:30;5.68;;;2.33;;
84864;SDS011;75122;41.650;25.368;2024-01-06T02:02:56;3.25;;;1.20;;
84864;SDS011;75122;41.650;25.368;2024-01-06T02:05:23;3.03;;;1.33;;
84864;SDS011;75122;41.650;25.368;2024-01-06T02:07:49;5.53;;;2.13;;
84864;SDS011;75122;41.650;25.368;2024-01-06T02:10:16;4.72;;;1.80;;
84864;SDS011;75122;41.650;25.368;2024-01-06T02:12:42;4.85;;;1.80;;
84864;SDS011;75122;41.650;25.368;2024-01-06T02:15:07;7.03;;;1.52;;
84864;SDS011;75122;41.650;25.368;2024-01-06T02:17:33;3.42;;;1.48;;
84864;SDS011;75122;41.650;25.368;2024-01-06T02:19:59;4.20;;;1.63;;
84864;SDS011;75122;41.650;25.368;2024-01-06T02:22:24;2.83;;;1.35;;
84864;SDS011;75122;41.650;25.368;2024-01-06T02:24:50;4.10;;;1.40;;
84864;SDS011;75122;41.650;25.368;2024-01-06T02:27:15;1.65;;;1.08;;
84864;SDS011;75122;41.650;25.368;2024-01-06T02:29:40;2.50;;;1.50;;
84864;SDS011;75122;41.650;25.368;2024-01-06T02:32:06;6.50;;;1.92;;
84864;SDS011;75122;41.650;25.368;2024-01-06T02:34:31;5.15;;;2.05;;
84864;SDS011;75122;41.650;25.368;2024-01-06T02:36:57;4.15;;;1.92;;
84864;SDS011;75122;41.650;25.368;2024-01-06T02:39:23;4.47;;;1.27;;
84864;SDS011;75122;41.650;25.368;2024-01-06T02:41:49;2.72;;;1.67;;
84864;SDS011;75122;41.650;25.368;2024-01-06T02:44:14;5.50;;;2.08;;
84864;SDS011;75122;41.650;25.368;2024-01-06T02:46:40;3.72;;;2.25;;
84864;SDS011;75122;41.650;25.368;2024-01-06T02:49:05;4.00;;;1.30;;
84864;SDS011;75122;41.650;25.368;2024-01-06T02:51:32;4.00;;;1.48;;
84864;SDS011;75122;41.650;25.368;2024-01-06T02:53:57;2.00;;;1.42;;
84864;SDS011;75122;41.650;25.368;2024-01-06T02:56:22;2.95;;;1.70;;
84864;SDS011;75122;41.650;25.368;2024-01-06T02:58:48;5.18;;;1.33;;
84864;SDS011;75122;41.650;25.368;2024-01-06T03:01:13;10.77;;;1.80;;
84864;SDS011;75122;41.650;25.368;2024-01-06T03:03:39;3.70;;;1.35;;
84864;SDS011;75122;41.650;25.368;2024-01-06T03:06:04;4.75;;;2.72;;
84864;SDS011;75122;41.650;25.368;2024-01-06T03:08:30;6.63;;;4.28;;
84864;SDS011;75122;41.650;25.368;2024-01-06T03:10:56;13.23;;;4.93;;
84864;SDS011;75122;41.650;25.368;2024-01-06T03:13:21;8.10;;;5.03;;
84864;SDS011;75122;41.650;25.368;2024-01-06T03:15:47;6.88;;;4.55;;
84864;SDS011;75122;41.650;25.368;2024-01-06T03:18:12;8.75;;;4.90;;
84864;SDS011;75122;41.650;25.368;2024-01-06T03:20:38;7.63;;;5.30;;
84864;SDS011;75122;41.650;25.368;2024-01-06T03:23:03;8.63;;;5.47;;
84864;SDS011;75122;41.650;25.368;2024-01-06T03:25:28;6.80;;;3.47;;
84864;SDS011;75122;41.650;25.368;2024-01-06T03:27:54;7.30;;;4.65;;
84864;SDS011;75122;41.650;25.368;2024-01-06T03:30:19;6.93;;;4.53;;
84864;SDS011;75122;41.650;25.368;2024-01-06T03:32:45;14.73;;;6.45;;
84864;SDS011;75122;41.650;25.368;2024-01-06T03:35:10;19.85;;;9.40;;
84864;SDS011;75122;41.650;25.368;2024-01-06T03:37:36;9.10;;;6.22;;
84864;SDS011;75122;41.650;25.368;2024-01-06T03:40:04;18.58;;;9.60;;
84864;SDS011;75122;41.650;25.368;2024-01-06T03:42:31;19.83;;;12.40;;
84864;SDS011;75122;41.650;25.368;2024-01-06T03:44:57;8.70;;;5.45;;
84864;SDS011;75122;41.650;25.368;2024-01-06T03:47:22;7.60;;;3.42;;
84864;SDS011;75122;41.650;25.368;2024-01-06T03:49:47;19.45;;;9.27;;
84864;SDS011;75122;41.650;25.368;2024-01-06T03:52:13;14.45;;;8.27;;
84864;SDS011;75122;41.650;25.368;2024-01-06T03:54:39;18.35;;;8.90;;
84864;SDS011;75122;41.650;25.368;2024-01-06T03:57:04;14.73;;;6.05;;
84864;SDS011;75122;41.650;25.368;2024-01-06T03:59:30;19.08;;;8.18;;
84864;SDS011;75122;41.650;25.368;2024-01-06T04:01:55;10.65;;;5.55;;
84864;SDS011;75122;41.650;25.368;2024-01-06T04:04:21;12.07;;;5.00;;
84864;SDS011;75122;41.650;25.368;2024-01-06T04:06:46;7.25;;;3.72;;
84864;SDS011;75122;41.650;25.368;2024-01-06T04:09:12;15.93;;;5.30;;
84864;SDS011;75122;41.650;25.368;2024-01-06T04:11:37;10.20;;;3.95;;
84864;SDS011;75122;41.650;25.368;2024-01-06T04:14:03;8.20;;;3.85;;
84864;SDS011;75122;41.650;25.368;2024-01-06T04:16:28;6.03;;;3.53;;
84864;SDS011;75122;41.650;25.368;2024-01-06T04:18:54;9.75;;;2.92;;
84864;SDS011;75122;41.650;25.368;2024-01-06T04:21:19;9.57;;;3.90;;
84864;SDS011;75122;41.650;25.368;2024-01-06T04:23:44;6.90;;;3.28;;
84864;SDS011;75122;41.650;25.368;2024-01-06T04:26:10;5.53;;;3.67;;
84864;SDS011;75122;41.650;25.368;2024-01-06T04:28:35;10.63;;;4.40;;
84864;SDS011;75122;41.650;25.368;2024-01-06T04:31:01;6.28;;;2.92;;
84864;SDS011;75122;41.650;25.368;2024-01-06T04:33:26;7.18;;;2.80;;
84864;SDS011;75122;41.650;25.368;2024-01-06T04:35:52;4.15;;;2.15;;
84864;SDS011;75122;41.650;25.368;2024-01-06T04:38:18;6.07;;;1.90;;
84864;SDS011;75122;41.650;25.368;2024-01-06T04:40:43;4.65;;;2.72;;
84864;SDS011;75122;41.650;25.368;2024-01-06T04:43:09;6.72;;;3.70;;
84864;SDS011;75122;41.650;25.368;2024-01-06T04:45:34;8.40;;;3.88;;
84864;SDS011;75122;41.650;25.368;2024-01-06T04:47:59;6.50;;;4.03;;
84864;SDS011;75122;41.650;25.368;2024-01-06T04:50:25;5.95;;;2.65;;
84864;SDS011;75122;41.650;25.368;2024-01-06T04:52:50;5.50;;;2.67;;
84864;SDS011;75122;41.650;25.368;2024-01-06T04:55:16;3.97;;;2.20;;
84864;SDS011;75122;41.650;25.368;2024-01-06T04:57:41;18.60;;;8.98;;
84864;SDS011;75122;41.650;25.368;2024-01-06T05:00:07;22.30;;;10.55;;
84864;SDS011;75122;41.650;25.368;2024-01-06T05:02:33;46.50;;;25.27;;
84864;SDS011;75122;41.650;25.368;2024-01-06T05:04:59;20.27;;;10.23;;
84864;SDS011;75122;41.650;25.368;2024-01-06T05:07:24;16.58;;;10.15;;
84864;SDS011;75122;41.650;25.368;2024-01-06T05:09:50;17.90;;;8.85;;
84864;SDS011;75122;41.650;25.368;2024-01-06T05:12:15;14.93;;;8.35;;
84864;SDS011;75122;41.650;25.368;2024-01-06T05:14:41;17.15;;;8.93;;
84864;SDS011;75122;41.650;25.368;2024-01-06T05:17:06;41.67;;;22.05;;
84864;SDS011;75122;41.650;25.368;2024-01-06T05:19:32;18.60;;;8.00;;
84864;SDS011;75122;41.650;25.368;2024-01-06T05:21:57;14.20;;;7.70;;
84864;SDS011;75122;41.650;25.368;2024-01-06T05:24:23;22.35;;;11.75;;
84864;SDS011;75122;41.650;25.368;2024-01-06T05:26:48;11.18;;;6.93;;
84864;SDS011;75122;41.650;25.368;2024-01-06T05:29:14;10.20;;;4.50;;
84864;SDS011;75122;41.650;25.368;2024-01-06T05:31:39;3.50;;;1.70;;
84864;SDS011;75122;41.650;25.368;2024-01-06T05:34:05;8.38;;;3.50;;
84864;SDS011;75122;41.650;25.368;2024-01-06T05:36:31;25.80;;;7.25;;
84864;SDS011;75122;41.650;25.368;2024-01-06T05:38:57;15.63;;;6.13;;
84864;SDS011;75122;41.650;25.368;2024-01-06T05:41:23;12.13;;;5.20;;
84864;SDS011;75122;41.650;25.368;2024-01-06T05:43:48;11.68;;;5.13;;
84864;SDS011;75122;41.650;25.368;2024-01-06T05:46:20;6.63;;;4.28;;
84864;SDS011;75122;41.650;25.368;2024-01-06T05:48:49;10.77;;;4.35;;
84864;SDS011;75122;41.650;25.368;2024-01-06T05:51:14;11.48;;;3.33;;
84864;SDS011;75122;41.650;25.368;2024-01-06T05:53:40;11.15;;;4.78;;
84864;SDS011;75122;41.650;25.368;2024-01-06T05:56:07;8.02;;;4.10;;
84864;SDS011;75122;41.650;25.368;2024-01-06T05:58:34;6.35;;;3.97;;
84864;SDS011;75122;41.650;25.368;2024-01-06T06:01:00;10.30;;;5.50;;
84864;SDS011;75122;41.650;25.368;2024-01-06T06:03:25;28.42;;;13.88;;
84864;SDS011;75122;41.650;25.368;2024-01-06T06:05:50;38.17;;;21.30;;
84864;SDS011;75122;41.650;25.368;2024-01-06T06:08:16;19.35;;;10.63;;
84864;SDS011;75122;41.650;25.368;2024-01-06T06:10:41;18.73;;;10.18;;
84864;SDS011;75122;41.650;25.368;2024-01-06T06:13:24;26.23;;;14.00;;
84864;SDS011;75122;41.650;25.368;2024-01-06T06:15:50;19.52;;;10.07;;
84864;SDS011;75122;41.650;25.368;2024-01-06T06:18:15;14.23;;;6.43;;
84864;SDS011;75122;41.650;25.368;2024-01-06T06:20:41;11.60;;;5.90;;
84864;SDS011;75122;41.650;25.368;2024-01-06T06:23:08;23.38;;;13.15;;
84864;SDS011;75122;41.650;25.368;2024-01-06T06:25:34;19.75;;;10.98;;
84864;SDS011;75122;41.650;25.368;2024-01-06T06:28:05;24.02;;;11.90;;
84864;SDS011;75122;41.650;25.368;2024-01-06T06:30:31;15.52;;;8.13;;
84864;SDS011;75122;41.650;25.368;2024-01-06T06:32:57;14.20;;;8.05;;
84864;SDS011;75122;41.650;25.368;2024-01-06T06:35:23;9.63;;;5.18;;
84864;SDS011;75122;41.650;25.368;2024-01-06T06:37:49;9.77;;;3.35;;
84864;SDS011;75122;41.650;25.368;2024-01-06T06:40:14;8.93;;;4.32;;
84864;SDS011;75122;41.650;25.368;2024-01-06T06:42:40;8.35;;;4.50;;
84864;SDS011;75122;41.650;25.368;2024-01-06T06:45:05;13.05;;;4.47;;
84864;SDS011;75122;41.650;25.368;2024-01-06T06:47:31;9.38;;;3.78;;
84864;SDS011;75122;41.650;25.368;2024-01-06T06:49:57;14.88;;;5.78;;
84864;SDS011;75122;41.650;25.368;2024-01-06T06:52:22;8.88;;;3.40;;
84864;SDS011;75122;41.650;25.368;2024-01-06T06:54:48;9.65;;;3.05;;
84864;SDS011;75122;41.650;25.368;2024-01-06T06:57:14;5.38;;;3.05;;
84864;SDS011;75122;41.650;25.368;2024-01-06T06:59:40;10.40;;;3.60;;
84864;SDS011;75122;41.650;25.368;2024-01-06T07:02:05;8.40;;;3.63;;
84864;SDS011;75122;41.650;25.368;2024-01-06T07:04:31;9.27;;;4.72;;
84864;SDS011;75122;41.650;25.368;2024-01-06T07:06:56;7.63;;;5.03;;
84864;SDS011;75122;41.650;25.368;2024-01-06T07:09:22;15.95;;;7.90;;
84864;SDS011;75122;41.650;25.368;2024-01-06T07:11:50;13.57;;;8.02;;
84864;SDS011;75122;41.650;25.368;2024-01-06T07:14:16;11.10;;;3.80;;
84864;SDS011;75122;41.650;25.368;2024-01-06T07:16:42;14.40;;;7.35;;
84864;SDS011;75122;41.650;25.368;2024-01-06T07:19:07;11.32;;;6.72;;
84864;SDS011;75122;41.650;25.368;2024-01-06T07:21:33;17.02;;;9.38;;
84864;SDS011;75122;41.650;25.368;2024-01-06T07:23:58;17.38;;;9.25;;
84864;SDS011;75122;41.650;25.368;2024-01-06T07:26:26;9.85;;;3.78;;
84864;SDS011;75122;41.650;25.368;2024-01-06T07:28:51;8.82;;;3.55;;
84864;SDS011;75122;41.650;25.368;2024-01-06T07:31:17;9.82;;;4.03;;
84864;SDS011;75122;41.650;25.368;2024-01-06T07:33:42;7.32;;;3.90;;
84864;SDS011;75122;41.650;25.368;2024-01-06T07:36:08;8.60;;;4.53;;
84864;SDS011;75122;41.650;25.368;2024-01-06T07:38:33;10.02;;;3.97;;
84864;SDS011;75122;41.650;25.368;2024-01-06T07:40:59;9.63;;;3.38;;
84864;SDS011;75122;41.650;25.368;2024-01-06T07:43:24;12.18;;;4.40;;
84864;SDS011;75122;41.650;25.368;2024-01-06T07:45:50;9.35;;;4.72;;
84864;SDS011;75122;41.650;25.368;2024-01-06T07:48:16;17.00;;;5.63;;
84864;SDS011;75122;41.650;25.368;2024-01-06T07:50:41;9.32;;;3.75;;
84864;SDS011;75122;41.650;25.368;2024-01-06T07:53:07;7.35;;;3.17;;
84864;SDS011;75122;41.650;25.368;2024-01-06T07:55:32;14.30;;;8.02;;
84864;SDS011;75122;41.650;25.368;2024-01-06T07:57:58;8.68;;;4.25;;
84864;SDS011;75122;41.650;25.368;2024-01-06T08:00:23;18.90;;;12.88;;
84864;SDS011;75122;41.650;25.368;2024-01-06T08:02:49;5.65;;;3.00;;
84864;SDS011;75122;41.650;25.368;2024-01-06T08:05:15;10.05;;;4.10;;
84864;SDS011;75122;41.650;25.368;2024-01-06T08:07:40;9.38;;;2.85;;
84864;SDS011;75122;41.650;25.368;2024-01-06T08:10:06;15.98;;;6.32;;
84864;SDS011;75122;41.650;25.368;2024-01-06T08:12:33;9.27;;;4.40;;
84864;SDS011;75122;41.650;25.368;2024-01-06T08:14:59;18.40;;;8.57;;
84864;SDS011;75122;41.650;25.368;2024-01-06T08:17:25;22.65;;;12.77;;
84864;SDS011;75122;41.650;25.368;2024-01-06T08:19:50;16.25;;;9.25;;
84864;SDS011;75122;41.650;25.368;2024-01-06T08:22:16;23.55;;;13.60;;
84864;SDS011;75122;41.650;25.368;2024-01-06T08:24:41;17.92;;;6.90;;
84864;SDS011;75122;41.650;25.368;2024-01-06T08:27:07;15.82;;;10.48;;
84864;SDS011;75122;41.650;25.368;2024-01-06T08:29:33;6.20;;;2.67;;
84864;SDS011;75122;41.650;25.368;2024-01-06T08:31:59;7.25;;;4.75;;
84864;SDS011;75122;41.650;25.368;2024-01-06T08:34:25;14.98;;;8.25;;
84864;SDS011;75122;41.650;25.368;2024-01-06T08:36:50;14.00;;;7.72;;
84864;SDS011;75122;41.650;25.368;2024-01-06T08:39:16;16.33;;;10.93;;
84864;SDS011;75122;41.650;25.368;2024-01-06T08:41:42;11.02;;;6.45;;
84864;SDS011;75122;41.650;25.368;2024-01-06T08:44:07;11.50;;;5.55;;
84864;SDS011;75122;41.650;25.368;2024-01-06T08:46:33;10.30;;;5.05;;
84864;SDS011;75122;41.650;25.368;2024-01-06T08:48:58;16.52;;;7.43;;
84864;SDS011;75122;41.650;25.368;2024-01-06T08:51:25;15.68;;;6.15;;
84864;SDS011;75122;41.650;25.368;2024-01-06T08:53:51;7.72;;;3.90;;
84864;SDS011;75122;41.650;25.368;2024-01-06T08:56:17;7.60;;;2.95;;
84864;SDS011;75122;41.650;25.368;2024-01-06T08:58:43;8.15;;;3.72;;
84864;SDS011;75122;41.650;25.368;2024-01-06T09:01:08;7.88;;;3.10;;
84864;SDS011;75122;41.650;25.368;2024-01-06T09:03:34;9.60;;;3.40;;
84864;SDS011;75122;41.650;25.368;2024-01-06T09:05:59;17.13;;;7.25;;
84864;SDS011;75122;41.650;25.368;2024-01-06T09:08:25;10.48;;;3.08;;
84864;SDS011;75122;41.650;25.368;2024-01-06T09:10:51;14.38;;;5.70;;
84864;SDS011;75122;41.650;25.368;2024-01-06T09:13:17;5.53;;;2.30;;
84864;SDS011;75122;41.650;25.368;2024-01-06T09:15:43;4.78;;;2.33;;
84864;SDS011;75122;41.650;25.368;2024-01-06T09:18:08;9.48;;;3.08;;
84864;SDS011;75122;41.650;25.368;2024-01-06T09:20:34;8.90;;;4.03;;
84864;SDS011;75122;41.650;25.368;2024-01-06T09:22:59;15.52;;;5.28;;
84864;SDS011;75122;41.650;25.368;2024-01-06T09:25:25;11.25;;;4.35;;
84864;SDS011;75122;41.650;25.368;2024-01-06T09:27:51;10.80;;;4.03;;
84864;SDS011;75122;41.650;25.368;2024-01-06T09:30:18;11.45;;;4.90;;
84864;SDS011;75122;41.650;25.368;2024-01-06T09:32:43;8.13;;;3.30;;
84864;SDS011;75122;41.650;25.368;2024-01-06T09:35:09;9.00;;;3.25;;
84864;SDS011;75122;41.650;25.368;2024-01-06T09:37:34;10.75;;;3.30;;
84864;SDS011;75122;41.650;25.368;2024-01-06T09:40:00;11.57;;;3.67;;
84864;SDS011;75122;41.650;25.368;2024-01-06T09:42:25;7.90;;;2.83;;
84864;SDS011;75122;41.650;25.368;2024-01-06T09:44:51;6.05;;;2.00;;
84864;SDS011;75122;41.650;25.368;2024-01-06T09:47:17;8.75;;;3.08;;
84864;SDS011;75122;41.650;25.368;2024-01-06T09:49:46;7.85;;;2.20;;
84864;SDS011;75122;41.650;25.368;2024-01-06T09:52:14;7.07;;;3.20;;
84864;SDS011;75122;41.650;25.368;2024-01-06T09:54:43;15.60;;;3.03;;
84864;SDS011;75122;41.650;25.368;2024-01-06T09:57:15;10.30;;;2.33;;
84864;SDS011;75122;41.650;25.368;2024-01-06T09:59:43;5.38;;;2.58;;
84864;SDS011;75122;41.650;25.368;2024-01-06T10:02:09;9.38;;;3.10;;
84864;SDS011;75122;41.650;25.368;2024-01-06T10:04:39;5.65;;;2.42;;
84864;SDS011;75122;41.650;25.368;2024-01-06T10:07:05;6.00;;;2.92;;
84864;SDS011;75122;41.650;25.368;2024-01-06T10:09:30;7.20;;;2.25;;
84864;SDS011;75122;41.650;25.368;2024-01-06T10:11:56;5.47;;;2.03;;
84864;SDS011;75122;41.650;25.368;2024-01-06T10:14:23;6.50;;;2.58;;
84864;SDS011;75122;41.650;25.368;2024-01-06T10:16:49;3.53;;;1.83;;
84864;SDS011;75122;41.650;25.368;2024-01-06T10:19:16;8.38;;;1.77;;
84864;SDS011;75122;41.650;25.368;2024-01-06T10:21:41;6.28;;;1.88;;
84864;SDS011;75122;41.650;25.368;2024-01-06T10:24:07;8.50;;;2.67;;
84864;SDS011;75122;41.650;25.368;2024-01-06T10:26:33;7.10;;;2.15;;
84864;SDS011;75122;41.650;25.368;2024-01-06T10:28:59;8.13;;;2.80;;
84864;SDS011;75122;41.650;25.368;2024-01-06T10:31:25;4.57;;;2.08;;
84864;SDS011;75122;41.650;25.368;2024-01-06T10:33:51;4.45;;;1.90;;
84864;SDS011;75122;41.650;25.368;2024-01-06T10:36:16;5.90;;;2.35;;
84864;SDS011;75122;41.650;25.368;2024-01-06T10:38:42;6.85;;;2.55;;
84864;SDS011;75122;41.650;25.368;2024-01-06T10:41:09;10.77;;;4.25;;
84864;SDS011;75122;41.650;25.368;2024-01-06T10:43:36;6.93;;;1.90;;
84864;SDS011;75122;41.650;25.368;2024-01-06T10:46:05;7.53;;;2.88;;
84864;SDS011;75122;41.650;25.368;2024-01-06T10:48:35;7.22;;;3.13;;
84864;SDS011;75122;41.650;25.368;2024-01-06T10:51:07;7.25;;;2.55;;
84864;SDS011;75122;41.650;25.368;2024-01-06T10:53:33;5.03;;;2.38;;
84864;SDS011;75122;41.650;25.368;2024-01-06T10:56:02;5.80;;;1.75;;
84864;SDS011;75122;41.650;25.368;2024-01-06T10:58:29;6.07;;;2.10;;
84864;SDS011;75122;41.650;25.368;2024-01-06T11:00:57;5.53;;;1.60;;
84864;SDS011;75122;41.650;25.368;2024-01-06T11:03:23;9.77;;;3.03;;
84864;SDS011;75122;41.650;25.368;2024-01-06T11:05:49;11.65;;;2.47;;
84864;SDS011;75122;41.650;25.368;2024-01-06T11:08:17;9.52;;;2.35;;
84864;SDS011;75122;41.650;25.368;2024-01-06T11:10:43;8.93;;;2.08;;
84864;SDS011;75122;41.650;25.368;2024-01-06T11:15:57;4.13;;;1.60;;
84864;SDS011;75122;41.650;25.368;2024-01-06T11:18:36;7.13;;;2.00;;
84864;SDS011;75122;41.650;25.368;2024-01-06T11:26:32;7.85;;;1.98;;
84864;SDS011;75122;41.650;25.368;2024-01-06T11:28:57;5.30;;;1.80;;
84864;SDS011;75122;41.650;25.368;2024-01-06T11:31:30;8.73;;;2.88;;
84864;SDS011;75122;41.650;25.368;2024-01-06T11:33:56;8.10;;;2.15;;
84864;SDS011;75122;41.650;25.368;2024-01-06T11:36:22;6.15;;;2.05;;
84864;SDS011;75122;41.650;25.368;2024-01-06T11:38:47;5.25;;;1.50;;
84864;SDS011;75122;41.650;25.368;2024-01-06T11:41:58;3.70;;;1.70;;
84864;SDS011;75122;41.650;25.368;2024-01-06T11:44:22;8.57;;;1.67;;
84864;SDS011;75122;41.650;25.368;2024-01-06T11:46:48;4.50;;;2.80;;
84864;SDS011;75122;41.650;25.368;2024-01-06T11:49:15;9.95;;;4.30;;
84864;SDS011;75122;41.650;25.368;2024-01-06T11:51:41;15.25;;;7.47;;
84864;SDS011;75122;41.650;25.368;2024-01-06T11:54:06;11.90;;;3.47;;
84864;SDS011;75122;41.650;25.368;2024-01-06T11:56:34;10.32;;;3.20;;
84864;SDS011;75122;41.650;25.368;2024-01-06T11:58:59;10.20;;;3.10;;
84864;SDS011;75122;41.650;25.368;2024-01-06T12:01:25;12.30;;;2.50;;
84864;SDS011;75122;41.650;25.368;2024-01-06T12:03:54;8.02;;;2.47;;
84864;SDS011;75122;41.650;25.368;2024-01-06T12:06:20;5.40;;;2.70;;
84864;SDS011;75122;41.650;25.368;2024-01-06T12:08:48;6.00;;;2.60;;
84864;SDS011;75122;41.650;25.368;2024-01-06T12:11:16;6.88;;;1.95;;
84864;SDS011;75122;41.650;25.368;2024-01-06T12:13:44;6.80;;;3.38;;
84864;SDS011;75122;41.650;25.368;2024-01-06T12:16:09;5.00;;;2.80;;
84864;SDS011;75122;41.650;25.368;2024-01-06T12:18:35;7.35;;;2.35;;
84864;SDS011;75122;41.650;25.368;2024-01-06T12:21:00;8.52;;;3.33;;
84864;SDS011;75122;41.650;25.368;2024-01-06T12:23:26;10.68;;;2.58;;
84864;SDS011;75122;41.650;25.368;2024-01-06T12:25:53;10.27;;;3.70;;
84864;SDS011;75122;41.650;25.368;2024-01-06T12:28:19;7.82;;;2.72;;
84864;SDS011;75122;41.650;25.368;2024-01-06T12:30:44;8.15;;;3.38;;
84864;SDS011;75122;41.650;25.368;2024-01-06T12:33:10;6.65;;;2.45;;
84864;SDS011;75122;41.650;25.368;2024-01-06T12:35:37;4.93;;;2.28;;
84864;SDS011;75122;41.650;25.368;2024-01-06T12:38:03;4.43;;;2.53;;
84864;SDS011;75122;41.650;25.368;2024-01-06T12:40:32;6.47;;;2.58;;
84864;SDS011;75122;41.650;25.368;2024-01-06T12:42:57;12.27;;;4.28;;
84864;SDS011;75122;41.650;25.368;2024-01-06T12:45:23;11.20;;;3.80;;
84864;SDS011;75122;41.650;25.368;2024-01-06T12:47:48;9.90;;;3.25;;
84864;SDS011;75122;41.650;25.368;2024-01-06T12:50:13;6.45;;;3.70;;
84864;SDS011;75122;41.650;25.368;2024-01-06T12:52:39;8.57;;;3.38;;
84864;SDS011;75122;41.650;25.368;2024-01-06T12:55:05;7.05;;;2.97;;
84864;SDS011;75122;41.650;25.368;2024-01-06T12:57:31;15.35;;;5.00;;
84864;SDS011;75122;41.650;25.368;2024-01-06T12:59:57;8.27;;;3.47;;
84864;SDS011;75122;41.650;25.368;2024-01-06T13:02:23;12.68;;;4.57;;
84864;SDS011;75122;41.650;25.368;2024-01-06T13:04:48;12.02;;;4.20;;
84864;SDS011;75122;41.650;25.368;2024-01-06T13:07:14;14.75;;;6.13;;
84864;SDS011;75122;41.650;25.368;2024-01-06T13:09:39;12.73;;;6.40;;
84864;SDS011;75122;41.650;25.368;2024-01-06T13:12:05;14.75;;;5.43;;
84864;SDS011;75122;41.650;25.368;2024-01-06T13:14:31;11.25;;;3.95;;
84864;SDS011;75122;41.650;25.368;2024-01-06T13:16:57;8.10;;;4.13;;
84864;SDS011;75122;41.650;25.368;2024-01-06T13:19:23;9.02;;;3.05;;
84864;SDS011;75122;41.650;25.368;2024-01-06T13:21:48;7.65;;;2.70;;
84864;SDS011;75122;41.650;25.368;2024-01-06T13:24:14;10.70;;;3.85;;
84864;SDS011;75122;41.650;25.368;2024-01-06T13:26:39;11.18;;;3.70;;
84864;SDS011;75122;41.650;25.368;2024-01-06T13:29:05;10.75;;;3.20;;
84864;SDS011;75122;41.650;25.368;2024-01-06T13:31:30;10.82;;;3.90;;
84864;SDS011;75122;41.650;25.368;2024-01-06T13:33:56;8.80;;;2.55;;
84864;SDS011;75122;41.650;25.368;2024-01-06T13:36:22;18.17;;;4.85;;
84864;SDS011;75122;41.650;25.368;2024-01-06T13:38:47;7.78;;;2.80;;
84864;SDS011;75122;41.650;25.368;2024-01-06T13:41:13;8.57;;;2.97;;
84864;SDS011;75122;41.650;25.368;2024-01-06T13:43:39;10.55;;;3.72;;
84864;SDS011;75122;41.650;25.368;2024-01-06T13:46:04;10.43;;;3.45;;
84864;SDS011;75122;41.650;25.368;2024-01-06T13:48:30;12.65;;;4.03;;
84864;SDS011;75122;41.650;25.368;2024-01-06T13:50:55;9.40;;;3.67;;
84864;SDS011;75122;41.650;25.368;2024-01-06T13:53:22;9.77;;;3.65;;
84864;SDS011;75122;41.650;25.368;2024-01-06T13:55:47;17.95;;;7.35;;
84864;SDS011;75122;41.650;25.368;2024-01-06T13:58:13;24.42;;;8.75;;
84864;SDS011;75122;41.650;25.368;2024-01-06T14:00:38;18.85;;;8.95;;
84864;SDS011;75122;41.650;25.368;2024-01-06T14:03:04;14.40;;;5.80;;
84864;SDS011;75122;41.650;25.368;2024-01-06T14:05:31;13.40;;;5.18;;
84864;SDS011;75122;41.650;25.368;2024-01-06T14:07:58;12.50;;;5.28;;
84864;SDS011;75122;41.650;25.368;2024-01-06T14:10:23;8.25;;;3.92;;
84864;SDS011;75122;41.650;25.368;2024-01-06T14:12:48;13.38;;;5.70;;
84864;SDS011;75122;41.650;25.368;2024-01-06T14:15:14;13.98;;;4.72;;
84864;SDS011;75122;41.650;25.368;2024-01-06T14:17:40;17.45;;;5.90;;
84864;SDS011;75122;41.650;25.368;2024-01-06T14:20:07;15.35;;;5.25;;
84864;SDS011;75122;41.650;25.368;2024-01-06T14:22:34;24.48;;;8.38;;
84864;SDS011;75122;41.650;25.368;2024-01-06T14:25:00;13.65;;;5.15;;
84864;SDS011;75122;41.650;25.368;2024-01-06T14:27:25;21.00;;;5.90;;
84864;SDS011;75122;41.650;25.368;2024-01-06T14:29:51;9.85;;;4.80;;